KRKD

Knox County Regional Airport

Rockland, Maine, USA
METAR KRKD 171756Z AUTO 23012KT 10SM CLR 12/05 A2966 RMK AO2 SLP045 T01220050 10128 20078 58027
Observed Flight Rules
Oct-17 @ 17:56 UTC (60 minutes ago) Visual Flight Rules
Wind Visibility Clouds
230° at 12 knots 10 miles
  • Clear skies
Temperatures Readings
Current 12°C / 54°F
Dewpoint 5°C / 41°F
Humidity 63%
Altimeter 29.66" Hg
Pressure 1004.5 hPa
Elevation 17
METAR KRKD 171756Z AUTO 23012KT 10SM CLR 12/05 A2966 RMK AO2 SLP045 T01220050 10128 20078 58027
Observed Flight Rules
Oct-17 @ 17:56 UTC
(60 minutes ago)
VFR
Wind Visibility
230° at 12 knots 10 miles
Clouds
  • Clear skies
Temperature Dewpoint
12°C / 54°F 5°C / 41°F
Humidity Altimeter Pressure
63% 29.66" Hg 1004.5 hPa